createdAt,value
2023-04-10T00:00:39.463Z,1.60
2023-04-10T00:03:07.960Z,1.17
2023-04-10T00:05:36.471Z,0.93
2023-04-10T00:08:04.759Z,1.67
2023-04-10T00:10:33.442Z,1.77
2023-04-10T00:13:03.633Z,1.00
2023-04-10T00:15:33.158Z,1.17
2023-04-10T00:18:01.660Z,0.75
2023-04-10T00:20:29.923Z,1.10
2023-04-10T00:22:58.195Z,1.17
2023-04-10T00:25:26.644Z,1.13
2023-04-10T00:27:55.252Z,1.00
2023-04-10T00:30:23.690Z,0.93
2023-04-10T00:32:53.453Z,1.20
2023-04-10T00:35:21.904Z,1.20
2023-04-10T00:37:51.028Z,0.88
2023-04-10T00:40:19.238Z,0.93
2023-04-10T00:42:47.864Z,1.10
2023-04-10T00:45:16.237Z,0.80
2023-04-10T00:47:44.519Z,1.13
2023-04-10T00:50:14.370Z,1.20
2023-04-10T00:52:42.704Z,0.68
2023-04-10T00:55:11.989Z,1.10
2023-04-10T00:57:41.864Z,1.00
2023-04-10T01:00:11.669Z,1.05
2023-04-10T01:02:40.019Z,0.82
2023-04-10T01:05:10.350Z,0.77
2023-04-10T01:07:52.362Z,1.20
2023-04-10T01:10:30.687Z,1.05
2023-04-10T01:13:09.992Z,0.70
2023-04-10T01:15:46.935Z,1.15
2023-04-10T01:18:21.961Z,0.77
2023-04-10T01:20:50.185Z,0.98
2023-04-10T01:23:47.621Z,1.20
2023-04-10T01:26:18.066Z,1.27
2023-04-10T01:29:00.287Z,1.20
2023-04-10T01:31:36.428Z,1.23
2023-04-10T01:34:09.253Z,0.50
2023-04-10T01:36:43.485Z,0.73
2023-04-10T01:39:12.521Z,1.02
2023-04-10T01:41:43.019Z,1.10
2023-04-10T01:44:15.755Z,0.80
2023-04-10T01:46:45.817Z,0.77
2023-04-10T01:49:15.009Z,0.60
2023-04-10T01:51:43.818Z,1.17
2023-04-10T01:54:12.506Z,0.55
2023-04-10T01:56:41.807Z,1.17
2023-04-10T01:59:10.634Z,0.60
2023-04-10T02:01:40.544Z,0.98
2023-04-10T02:04:08.927Z,0.98
2023-04-10T02:06:46.033Z,1.00
2023-04-10T02:09:27.363Z,1.77
2023-04-10T02:12:00.092Z,0.93
2023-04-10T02:14:31.838Z,0.85
2023-04-10T02:17:03.683Z,0.70
2023-04-10T02:19:34.128Z,1.50
2023-04-10T02:22:03.103Z,1.02
2023-04-10T02:24:31.842Z,1.40
2023-04-10T02:27:00.065Z,1.13
2023-04-10T02:29:28.280Z,1.02
2023-04-10T02:31:57.831Z,0.98
2023-04-10T02:34:27.470Z,1.20
2023-04-10T02:36:55.705Z,1.10
2023-04-10T02:39:23.931Z,1.30
2023-04-10T02:41:52.266Z,0.95
2023-04-10T02:44:20.664Z,1.35
2023-04-10T02:46:48.946Z,1.15
2023-04-10T02:49:17.369Z,1.17
2023-04-10T02:51:46.958Z,1.50
2023-04-10T02:54:15.171Z,0.90
2023-04-10T02:56:43.323Z,0.90
2023-04-10T02:59:11.563Z,1.15
2023-04-10T03:01:40.819Z,0.95
2023-04-10T03:04:09.523Z,0.80
2023-04-10T03:06:37.840Z,0.90
2023-04-10T03:09:07.424Z,1.23
2023-04-10T03:11:35.828Z,1.42
2023-04-10T03:14:04.040Z,0.82
2023-04-10T03:16:32.542Z,0.85
2023-04-10T03:19:00.802Z,0.60
2023-04-10T03:21:30.149Z,1.38
2023-04-10T03:23:58.456Z,1.17
2023-04-10T03:26:29.536Z,1.42
2023-04-10T03:31:25.877Z,1.00
2023-04-10T03:33:54.498Z,1.27
2023-04-10T03:36:23.023Z,1.15
2023-04-10T03:38:52.855Z,0.70
2023-04-10T03:41:22.645Z,1.25
2023-04-10T03:43:54.148Z,1.05
2023-04-10T03:46:22.806Z,0.90
2023-04-10T03:48:52.955Z,1.08
2023-04-10T03:51:21.427Z,1.60
2023-04-10T03:53:49.593Z,1.13
2023-04-10T03:56:18.142Z,1.30
2023-04-10T03:58:46.328Z,1.30
2023-04-10T04:01:16.013Z,1.52
2023-04-10T04:03:44.339Z,1.20
2023-04-10T04:06:12.695Z,1.25
2023-04-10T04:08:40.970Z,1.02
2023-04-10T04:11:09.078Z,0.95
2023-04-10T04:13:37.247Z,0.70
2023-04-10T04:16:06.095Z,1.10
2023-04-10T04:18:35.676Z,1.17
2023-04-10T04:21:03.844Z,1.70
2023-04-10T04:23:32.128Z,0.77
2023-04-10T04:26:00.306Z,1.73
2023-04-10T04:28:30.182Z,1.45
2023-04-10T04:30:58.661Z,1.53
2023-04-10T04:33:26.811Z,0.77
2023-04-10T04:35:57.967Z,0.85
2023-04-10T04:38:26.433Z,1.27
2023-04-10T04:40:54.715Z,0.60
2023-04-10T04:43:22.921Z,0.98
2023-04-10T04:45:51.181Z,1.08
2023-04-10T04:48:19.341Z,0.60
2023-04-10T04:50:47.573Z,0.95
2023-04-10T04:53:17.069Z,1.02
2023-04-10T04:55:45.348Z,1.15
2023-04-10T04:58:13.758Z,0.57
2023-04-10T05:00:42.003Z,0.98
2023-04-10T05:03:10.418Z,0.77
2023-04-10T05:05:38.636Z,2.05
2023-04-10T05:08:06.847Z,0.85
2023-04-10T05:10:37.704Z,1.42
2023-04-10T05:13:07.002Z,0.98
2023-04-10T05:15:35.344Z,1.00
2023-04-10T05:18:03.789Z,1.33
2023-04-10T05:20:32.128Z,1.02
2023-04-10T05:23:00.525Z,1.67
2023-04-10T05:25:28.821Z,1.17
2023-04-10T05:27:58.465Z,0.80
2023-04-10T05:30:26.750Z,0.95
2023-04-10T05:32:54.937Z,1.02
2023-04-10T05:35:23.195Z,1.42
2023-04-10T05:37:51.367Z,1.35
2023-04-10T05:40:19.934Z,0.80
2023-04-10T05:42:48.139Z,1.10
2023-04-10T05:45:18.494Z,1.02
2023-04-10T05:47:46.864Z,1.20
2023-04-10T05:50:15.117Z,1.40
2023-04-10T05:52:43.769Z,0.98
2023-04-10T05:55:12.017Z,0.80
2023-04-10T05:57:40.611Z,1.20
2023-04-10T06:00:09.800Z,1.45
2023-04-10T06:02:39.669Z,1.13
2023-04-10T06:05:08.668Z,0.90
2023-04-10T06:07:37.331Z,0.95
2023-04-10T06:10:06.442Z,0.70
2023-04-10T06:12:34.630Z,1.25
2023-04-10T06:15:02.723Z,1.10
2023-04-10T06:17:30.943Z,1.17
2023-04-10T06:20:03.570Z,1.10
2023-04-10T06:22:32.739Z,1.13
2023-04-10T06:25:01.023Z,1.17
2023-04-10T06:27:29.800Z,0.82
2023-04-10T06:29:58.179Z,1.42
2023-04-10T06:32:26.530Z,1.33
2023-04-10T06:34:54.705Z,0.80
2023-04-10T06:37:31.219Z,1.20
2023-04-10T06:40:05.618Z,0.90
2023-04-10T06:42:33.873Z,0.50
2023-04-10T06:45:02.337Z,0.88
2023-04-10T06:47:31.660Z,1.67
2023-04-10T06:50:00.189Z,0.98
2023-04-10T06:52:29.863Z,1.38
2023-04-10T06:54:57.995Z,1.00
2023-04-10T06:57:26.292Z,1.70
2023-04-10T06:59:54.600Z,1.73
2023-04-10T07:02:22.883Z,1.10
2023-04-10T07:04:52.643Z,0.80
2023-04-10T07:07:21.035Z,1.38
2023-04-10T07:09:50.629Z,1.10
2023-04-10T07:12:18.853Z,1.58
2023-04-10T07:14:47.203Z,1.05
2023-04-10T07:17:15.576Z,0.98
2023-04-10T07:19:43.782Z,0.88
2023-04-10T07:22:12.607Z,1.45
2023-04-10T07:24:40.984Z,1.25
2023-04-10T07:27:10.654Z,1.10
2023-04-10T07:29:38.979Z,0.90
2023-04-10T07:32:07.549Z,0.90
2023-04-10T07:34:36.712Z,1.27
2023-04-10T07:37:04.871Z,0.70
2023-04-10T07:39:33.007Z,0.77
2023-04-10T07:42:01.383Z,1.20
2023-04-10T07:44:31.127Z,1.45
2023-04-10T07:46:59.397Z,1.20
2023-04-10T07:49:27.684Z,0.80
2023-04-10T07:51:55.935Z,0.93
2023-04-10T07:54:24.149Z,1.17
2023-04-10T07:56:53.647Z,1.20
2023-04-10T07:59:21.936Z,1.20
2023-04-10T08:01:51.604Z,1.00
2023-04-10T08:04:19.981Z,0.93
2023-04-10T08:06:49.553Z,1.17
2023-04-10T08:09:17.883Z,2.15
2023-04-10T08:11:46.075Z,0.68
2023-04-10T08:14:18.481Z,1.20
2023-04-10T08:16:47.017Z,1.40
2023-04-10T08:19:16.657Z,0.98
2023-04-10T08:21:44.889Z,0.63
2023-04-10T08:24:13.125Z,1.75
2023-04-10T08:26:41.265Z,1.40
2023-04-10T08:29:09.561Z,1.23
2023-04-10T08:31:37.738Z,1.25
2023-04-10T08:34:06.054Z,1.02
2023-04-10T08:36:36.093Z,1.55
2023-04-10T08:39:04.405Z,1.52
2023-04-10T08:41:32.697Z,0.82
2023-04-10T08:44:01.225Z,0.85
2023-04-10T08:46:32.566Z,1.45
2023-04-10T08:49:03.662Z,1.00
2023-04-10T08:54:08.291Z,0.93
2023-04-10T08:56:38.986Z,1.00
2023-04-10T08:59:08.915Z,0.82
2023-04-10T09:01:37.353Z,0.82
2023-04-10T09:04:06.109Z,1.02
2023-04-10T09:06:34.343Z,0.95
2023-04-10T09:09:03.818Z,1.15
2023-04-10T09:12:01.449Z,1.10
2023-04-10T09:14:31.884Z,1.15
2023-04-10T09:17:14.660Z,0.70
2023-04-10T09:19:43.309Z,0.77
2023-04-10T09:22:11.580Z,0.75
2023-04-10T09:24:42.509Z,1.33
2023-04-10T09:29:49.102Z,0.93
2023-04-10T09:32:38.314Z,0.73
2023-04-10T09:35:08.508Z,1.20
2023-04-10T09:37:37.385Z,0.53
2023-04-10T09:40:20.772Z,1.50
2023-04-10T09:42:49.227Z,0.98
2023-04-10T09:45:20.177Z,0.95
2023-04-10T09:50:38.895Z,0.90
2023-04-10T09:53:08.559Z,0.90
2023-04-10T09:55:39.002Z,0.90
2023-04-10T09:58:07.680Z,1.05
2023-04-10T10:00:42.062Z,0.85
2023-04-10T10:03:12.789Z,1.10
2023-04-10T10:08:11.932Z,1.25
2023-04-10T10:10:47.164Z,1.30
2023-04-10T10:13:20.876Z,1.75
2023-04-10T10:15:56.122Z,1.20
2023-04-10T10:18:32.779Z,1.67
2023-04-10T10:21:01.956Z,1.25
2023-04-10T10:23:30.412Z,1.05
2023-04-10T10:26:02.523Z,1.10
2023-04-10T10:28:34.431Z,0.73
2023-04-10T10:31:03.746Z,0.68
2023-04-10T10:33:32.826Z,1.00
2023-04-10T10:36:02.903Z,1.48
2023-04-10T10:38:32.014Z,0.88
2023-04-10T10:41:09.291Z,1.00
2023-04-10T10:43:46.819Z,1.50
2023-04-10T10:46:22.588Z,1.05
2023-04-10T10:48:58.193Z,1.08
2023-04-10T10:51:44.326Z,0.95
2023-04-10T10:54:31.940Z,0.70
2023-04-10T10:57:02.195Z,1.35
2023-04-10T10:59:57.829Z,1.67
2023-04-10T11:02:26.353Z,0.77
2023-04-10T11:04:54.786Z,0.65
2023-04-10T11:07:23.073Z,0.65
2023-04-10T11:09:53.561Z,0.82
2023-04-10T11:12:24.759Z,0.98
2023-04-10T11:15:00.986Z,0.70
2023-04-10T11:17:48.771Z,1.25
2023-04-10T11:20:17.445Z,1.10
2023-04-10T11:23:12.394Z,1.02
2023-04-10T11:25:51.502Z,0.95
2023-04-10T11:28:41.774Z,0.82
2023-04-10T11:31:19.386Z,0.40
2023-04-10T11:33:48.411Z,0.98
2023-04-10T11:36:18.706Z,0.95
2023-04-10T11:38:57.386Z,0.90
2023-04-10T11:41:31.088Z,0.57
2023-04-10T11:44:01.689Z,0.63
2023-04-10T11:46:30.885Z,0.77
2023-04-10T11:49:02.358Z,0.73
2023-04-10T11:51:31.685Z,0.80
2023-04-10T11:54:08.064Z,0.77
2023-04-10T11:56:36.999Z,0.50
2023-04-10T11:59:10.832Z,1.02
2023-04-10T12:01:42.538Z,0.65
2023-04-10T12:04:18.747Z,0.43
2023-04-10T12:06:48.473Z,0.80
2023-04-10T12:09:17.572Z,0.50
2023-04-10T12:11:53.669Z,1.00
2023-04-10T12:14:24.448Z,0.63
2023-04-10T12:16:53.098Z,0.63
2023-04-10T12:19:23.595Z,1.00
2023-04-10T12:21:51.921Z,0.70
2023-04-10T12:24:52.720Z,0.85
2023-04-10T12:27:22.679Z,1.17
2023-04-10T12:29:53.237Z,0.88
2023-04-10T12:32:22.314Z,0.98
2023-04-10T12:34:57.262Z,0.60
2023-04-10T12:37:25.901Z,0.50
2023-04-10T12:39:54.160Z,0.88
2023-04-10T12:42:23.655Z,1.40
2023-04-10T12:44:54.555Z,0.50
2023-04-10T12:47:22.900Z,1.17
2023-04-10T12:50:11.407Z,0.60
2023-04-10T12:52:41.548Z,0.47
2023-04-10T12:55:12.255Z,0.85
2023-04-10T12:57:41.371Z,1.00
2023-04-10T13:00:13.591Z,0.77
2023-04-10T13:02:42.765Z,0.68
2023-04-10T13:05:11.791Z,0.80
2023-04-10T13:07:41.140Z,2.03
2023-04-10T13:10:10.360Z,0.93
2023-04-10T13:12:40.117Z,0.73
2023-04-10T13:15:10.824Z,1.13
2023-04-10T13:17:40.953Z,0.90
2023-04-10T13:20:11.303Z,0.35
2023-04-10T13:22:39.563Z,0.57
2023-04-10T13:25:08.330Z,0.80
2023-04-10T13:27:36.537Z,0.80
2023-04-10T13:30:05.211Z,1.02
2023-04-10T13:32:34.839Z,1.05
2023-04-10T13:35:03.197Z,1.05
2023-04-10T13:37:31.498Z,0.73
2023-04-10T13:39:59.860Z,0.68
2023-04-10T13:42:28.160Z,0.50
2023-04-10T13:44:56.339Z,0.93
2023-04-10T13:47:24.562Z,0.50
2023-04-10T13:49:54.309Z,0.77
2023-04-10T13:52:22.497Z,0.60
2023-04-10T13:54:50.669Z,1.02
2023-04-10T13:57:18.863Z,0.60
2023-04-10T13:59:47.153Z,1.73
2023-04-10T14:02:15.452Z,1.00
2023-04-10T14:04:46.164Z,1.00
2023-04-10T14:07:16.102Z,0.75
2023-04-10T14:09:44.386Z,0.90
2023-04-10T14:12:12.665Z,0.65
2023-04-10T14:14:40.876Z,0.80
2023-04-10T14:17:09.099Z,0.88
2023-04-10T14:19:38.362Z,0.77
2023-04-10T14:22:06.794Z,0.95
2023-04-10T14:24:36.407Z,0.50
2023-04-10T14:27:04.754Z,0.82
2023-04-10T14:29:38.903Z,0.60
2023-04-10T14:32:08.942Z,1.00
2023-04-10T14:34:37.139Z,1.10
2023-04-10T14:37:05.543Z,0.63
2023-04-10T14:39:36.239Z,0.75
2023-04-10T14:42:04.530Z,0.50
2023-04-10T14:44:32.923Z,0.98
2023-04-10T14:47:01.288Z,0.55
2023-04-10T14:49:29.523Z,0.52
2023-04-10T14:51:57.735Z,0.90
2023-04-10T14:54:26.072Z,0.95
2023-04-10T14:56:57.209Z,0.77
2023-04-10T15:01:54.103Z,0.90
2023-04-10T15:04:22.551Z,1.17
2023-04-10T15:06:51.965Z,0.82
2023-04-10T15:09:21.885Z,0.60
2023-04-10T15:11:50.497Z,0.85
2023-04-10T15:14:20.212Z,0.70
2023-04-10T15:16:48.476Z,1.05
2023-04-10T15:19:16.706Z,0.70
2023-04-10T15:21:44.937Z,0.80
2023-04-10T15:24:13.215Z,1.05
2023-04-10T15:26:45.109Z,0.80
2023-04-10T15:29:13.765Z,0.70
2023-04-10T15:31:43.485Z,0.70
2023-04-10T15:34:11.655Z,0.63
2023-04-10T15:36:39.989Z,0.80
2023-04-10T15:39:08.645Z,0.98
2023-04-10T15:41:36.828Z,0.75
2023-04-10T15:44:05.546Z,0.68
2023-04-10T15:46:34.687Z,0.60
2023-04-10T15:49:05.218Z,0.70
2023-04-10T15:51:33.434Z,0.57
2023-04-10T15:54:03.325Z,0.80
2023-04-10T15:56:31.537Z,3.75
2023-04-10T15:58:59.812Z,3.47
2023-04-10T16:01:28.138Z,4.63
2023-04-10T16:03:56.701Z,4.03
2023-04-10T16:06:27.952Z,3.30
2023-04-10T16:11:25.675Z,2.65
2023-04-10T16:13:53.967Z,5.95
2023-04-10T16:16:22.633Z,4.88
2023-04-10T16:18:51.982Z,3.83
2023-04-10T16:21:21.797Z,2.65
2023-04-10T16:23:51.370Z,3.53
2023-04-10T16:26:19.753Z,3.78
2023-04-10T16:28:48.069Z,2.45
2023-04-10T16:31:16.565Z,5.70
2023-04-10T16:33:44.772Z,5.13
2023-04-10T16:36:12.925Z,3.47
2023-04-10T16:38:41.195Z,2.47
2023-04-10T16:41:12.571Z,3.28
2023-04-10T16:43:40.980Z,4.38
2023-04-10T16:46:09.309Z,2.17
2023-04-10T16:48:37.619Z,2.88
2023-04-10T16:51:07.090Z,2.30
2023-04-10T16:53:36.444Z,2.80
2023-04-10T16:56:05.466Z,4.18
2023-04-10T16:58:36.885Z,1.67
2023-04-10T17:01:16.065Z,3.28
2023-04-10T17:03:44.237Z,1.67
2023-04-10T17:06:12.525Z,5.00
2023-04-10T17:08:40.850Z,2.03
2023-04-10T17:11:09.228Z,4.55
2023-04-10T17:13:39.195Z,3.22
2023-04-10T17:16:08.466Z,3.28
2023-04-10T17:18:36.665Z,3.58
2023-04-10T17:21:05.168Z,3.15
2023-04-10T17:23:33.442Z,3.60
2023-04-10T17:26:04.760Z,3.58
2023-04-10T17:28:33.425Z,4.43
2023-04-10T17:31:03.250Z,14.30
2023-04-10T17:33:31.540Z,17.92
2023-04-10T17:35:59.855Z,20.77
2023-04-10T17:38:28.137Z,17.65
2023-04-10T17:40:56.368Z,25.88
2023-04-10T17:43:24.576Z,23.23
2023-04-10T17:45:52.901Z,28.15
2023-04-10T17:48:22.568Z,29.92
2023-04-10T17:50:51.790Z,33.42
2023-04-10T17:53:20.160Z,28.83
2023-04-10T17:55:48.704Z,33.90
2023-04-10T17:58:16.864Z,28.98
2023-04-10T18:00:45.106Z,27.40
2023-04-10T18:03:13.489Z,37.75
2023-04-10T18:05:43.074Z,29.48
2023-04-10T18:08:11.306Z,32.30
2023-04-10T18:10:39.540Z,31.17
2023-04-10T18:13:08.017Z,27.83
2023-04-10T18:15:36.265Z,30.70
2023-04-10T18:18:04.639Z,30.25
2023-04-10T18:20:32.989Z,33.00
2023-04-10T18:23:04.462Z,34.05
2023-04-10T18:25:33.059Z,33.22
2023-04-10T18:30:32.489Z,35.33
2023-04-10T18:33:02.097Z,30.25
2023-04-10T18:35:31.569Z,30.58
2023-04-10T18:37:59.906Z,32.95
2023-04-10T18:40:29.876Z,33.92
2023-04-10T18:42:59.765Z,35.00
2023-04-10T18:45:28.056Z,34.45
2023-04-10T18:47:56.375Z,37.53
2023-04-10T18:50:24.736Z,38.92
2023-04-10T18:52:52.911Z,36.28
2023-04-10T18:55:22.204Z,40.28
2023-04-10T18:57:51.857Z,36.47
2023-04-10T19:00:20.511Z,40.25
2023-04-10T19:02:48.970Z,33.05
2023-04-10T19:05:18.128Z,33.90
2023-04-10T19:07:56.505Z,36.85
2023-04-10T19:10:30.236Z,46.75
2023-04-10T19:13:00.141Z,37.83
2023-04-10T19:15:29.015Z,41.67
2023-04-10T19:17:57.351Z,44.70
2023-04-10T19:20:51.209Z,39.92
2023-04-10T19:23:14.144Z,36.75
2023-04-10T19:25:43.660Z,38.80
2023-04-10T19:28:13.289Z,39.63
2023-04-10T19:30:41.492Z,36.45
2023-04-10T19:33:09.689Z,36.67
2023-04-10T19:35:38.022Z,38.20
2023-04-10T19:38:06.257Z,34.42
2023-04-10T19:40:34.373Z,34.05
2023-04-10T19:43:02.783Z,34.58
2023-04-10T19:45:33.231Z,35.78
2023-04-10T19:48:01.547Z,31.38
2023-04-10T19:50:31.208Z,33.80
2023-04-10T19:52:59.805Z,40.78
2023-04-10T19:55:28.031Z,38.65
2023-04-10T19:57:56.246Z,31.70
2023-04-10T20:00:24.353Z,32.17
2023-04-10T20:02:54.074Z,30.83
2023-04-10T20:05:22.560Z,37.22
2023-04-10T20:07:50.724Z,32.95
2023-04-10T20:10:18.956Z,36.85
2023-04-10T20:12:47.124Z,34.20
2023-04-10T20:15:15.416Z,29.40
2023-04-10T20:17:43.570Z,35.88
2023-04-10T20:20:13.775Z,28.52
2023-04-10T20:22:43.118Z,31.23
2023-04-10T20:25:11.660Z,24.80
2023-04-10T20:27:39.896Z,31.83
2023-04-10T20:30:09.982Z,29.25
2023-04-10T20:32:38.870Z,35.80
2023-04-10T20:35:08.212Z,24.45
2023-04-10T20:37:37.768Z,31.00
2023-04-10T20:40:06.936Z,28.23
2023-04-10T20:42:35.094Z,25.85
2023-04-10T20:45:03.709Z,30.13
2023-04-10T20:47:31.945Z,29.13
2023-04-10T20:50:00.324Z,28.92
2023-04-10T20:52:28.533Z,26.33
2023-04-10T20:54:58.180Z,28.35
2023-04-10T20:57:26.526Z,26.55
2023-04-10T20:59:54.714Z,25.50
2023-04-10T21:02:23.128Z,25.58
2023-04-10T21:04:52.145Z,22.27
2023-04-10T21:07:20.350Z,27.70
2023-04-10T21:09:48.704Z,25.25
2023-04-10T21:12:18.331Z,27.25
2023-04-10T21:14:48.120Z,24.65
2023-04-10T21:17:16.747Z,25.42
2023-04-10T21:19:44.917Z,22.40
2023-04-10T21:22:13.131Z,28.35
2023-04-10T21:24:41.386Z,20.85
2023-04-10T21:27:09.557Z,24.45
2023-04-10T21:29:39.194Z,24.63
2023-04-10T21:32:07.669Z,23.70
2023-04-10T21:34:36.059Z,26.42
2023-04-10T21:37:05.501Z,26.45
2023-04-10T21:39:33.614Z,26.45
2023-04-10T21:42:01.923Z,25.38
2023-04-10T21:44:30.547Z,21.83
2023-04-10T21:47:00.687Z,22.13
2023-04-10T21:49:28.854Z,20.80
2023-04-10T21:51:57.602Z,20.85
2023-04-10T21:54:25.892Z,21.00
2023-04-10T21:56:54.135Z,24.27
2023-04-10T21:59:22.286Z,21.23
2023-04-10T22:01:50.688Z,19.55
2023-04-10T22:04:20.489Z,18.20
2023-04-10T22:06:48.721Z,21.55
2023-04-10T22:09:17.415Z,20.17
2023-04-10T22:11:45.705Z,22.95
2023-04-10T22:14:17.939Z,18.40
2023-04-10T22:16:47.722Z,18.05
2023-04-10T22:19:15.959Z,20.92
2023-04-10T22:21:45.620Z,22.73
2023-04-10T22:24:13.850Z,23.40
2023-04-10T22:26:45.995Z,18.85
2023-04-10T22:29:14.980Z,20.40
2023-04-10T22:31:43.346Z,21.17
2023-04-10T22:34:12.125Z,18.33
2023-04-10T22:36:40.424Z,20.05
2023-04-10T22:39:10.041Z,16.38
2023-04-10T22:41:38.250Z,21.08
2023-04-10T22:44:07.504Z,19.92
2023-04-10T22:46:35.888Z,20.75
2023-04-10T22:49:04.282Z,19.75
2023-04-10T22:51:32.539Z,19.25
2023-04-10T22:54:00.718Z,16.55
2023-04-10T22:56:30.475Z,19.88
2023-04-10T22:58:58.703Z,18.40
2023-04-10T23:01:26.930Z,19.73
2023-04-10T23:03:55.260Z,15.70
2023-04-10T23:06:24.088Z,21.50
2023-04-10T23:08:52.970Z,16.38
2023-04-10T23:11:21.778Z,18.92
2023-04-10T23:13:51.341Z,16.65
2023-04-10T23:16:19.532Z,18.42
2023-04-10T23:18:47.718Z,12.88
2023-04-10T23:21:16.415Z,15.55
2023-04-10T23:23:44.594Z,18.10
2023-04-10T23:26:12.943Z,14.52
2023-04-10T23:28:41.197Z,16.73
2023-04-10T23:31:10.878Z,17.90
2023-04-10T23:33:39.090Z,15.30
2023-04-10T23:36:07.954Z,18.13
2023-04-10T23:38:36.193Z,18.35
2023-04-10T23:41:04.436Z,14.82
2023-04-10T23:43:32.598Z,15.95
2023-04-10T23:46:00.985Z,13.85
2023-04-10T23:48:30.513Z,13.07
2023-04-10T23:51:05.928Z,15.38
2023-04-10T23:53:34.677Z,16.58
2023-04-10T23:56:03.045Z,14.30
2023-04-10T23:58:31.374Z,12.93
